<?xml version="1.0" encoding="utf-8"?>
<gpx xmlns:xsi="http://www.w3.org/2001/XMLSchema-instance" xmlns:xsd="http://www.w3.org/2001/XMLSchema" version="1.1" creator="Shapelink.com" xmlns="http://www.topografix.com/GPX/1/1" xmlns:gpxtpx="http://www.garmin.com/xmlschemas/TrackPointExtension/v1">
  <metadata>
    <name>Löpning 3.09 km, 2019-11-08</name>
    <desc></desc>
    <author><name>Per Rooth</name></author> 
    <time>2019-11-08T21:28:12Z</time>
  </metadata>
  <trk>
    <name>Löpning 3.09 km, 2019-11-08</name>
    <trkseg>
      <trkpt lat="57.734346234779" lon="12.930786131374">
        <ele>134</ele>
        <time>2019-11-08T21:28:12Z</time>
      </trkpt>
      <trkpt lat="57.734381774035" lon="12.930699630166">
        <ele>134.8</ele>
        <time>2019-11-08T21:28:15Z</time>
      </trkpt>
      <trkpt lat="57.734418822033" lon="12.930585049593">
        <ele>136.2</ele>
        <time>2019-11-08T21:28:19Z</time>
      </trkpt>
      <trkpt lat="57.73444757195" lon="12.93045789617">
        <ele>137.6</ele>
        <time>2019-11-08T21:28:22Z</time>
      </trkpt>
      <trkpt lat="57.734529211656" lon="12.930299897355">
        <ele>138.8</ele>
        <time>2019-11-08T21:28:26Z</time>
      </trkpt>
      <trkpt lat="57.734612443923" lon="12.930117674849">
        <ele>140</ele>
        <time>2019-11-08T21:28:31Z</time>
      </trkpt>
      <trkpt lat="57.734650497749" lon="12.930016253859">
        <ele>141</ele>
        <time>2019-11-08T21:28:35Z</time>
      </trkpt>
      <trkpt lat="57.734659801658" lon="12.929722971178">
        <ele>138.2</ele>
        <time>2019-11-08T21:28:42Z</time>
      </trkpt>
      <trkpt lat="57.734657790002" lon="12.929689108302">
        <ele>137</ele>
        <time>2019-11-08T21:28:43Z</time>
      </trkpt>
      <trkpt lat="57.734652844681" lon="12.929663543507">
        <ele>136</ele>
        <time>2019-11-08T21:28:44Z</time>
      </trkpt>
      <trkpt lat="57.734632476664" lon="12.929601601266">
        <ele>134.2</ele>
        <time>2019-11-08T21:28:46Z</time>
      </trkpt>
      <trkpt lat="57.734595512485" lon="12.929479225526">
        <ele>133</ele>
        <time>2019-11-08T21:28:48Z</time>
      </trkpt>
      <trkpt lat="57.734581849988" lon="12.929407727919">
        <ele>132.6</ele>
        <time>2019-11-08T21:28:52Z</time>
      </trkpt>
      <trkpt lat="57.734557961573" lon="12.929395993259">
        <ele>132.4</ele>
        <time>2019-11-08T21:28:55Z</time>
      </trkpt>
      <trkpt lat="57.734509765648" lon="12.929417870018">
        <ele>132.2</ele>
        <time>2019-11-08T21:29:01Z</time>
      </trkpt>
      <trkpt lat="57.734529546932" lon="12.92937244012">
        <ele>132.2</ele>
        <time>2019-11-08T21:29:04Z</time>
      </trkpt>
      <trkpt lat="57.734522757593" lon="12.929324830928">
        <ele>132.2</ele>
        <time>2019-11-08T21:29:06Z</time>
      </trkpt>
      <trkpt lat="57.734490235821" lon="12.929249645285">
        <ele>131.8</ele>
        <time>2019-11-08T21:29:08Z</time>
      </trkpt>
      <trkpt lat="57.734347911159" lon="12.929015287361">
        <ele>131.4</ele>
        <time>2019-11-08T21:29:13Z</time>
      </trkpt>
      <trkpt lat="57.734223104668" lon="12.928898527494">
        <ele>132</ele>
        <time>2019-11-08T21:29:18Z</time>
      </trkpt>
      <trkpt lat="57.734170633974" lon="12.928927780325">
        <ele>132.6</ele>
        <time>2019-11-08T21:29:22Z</time>
      </trkpt>
      <trkpt lat="57.734144314808" lon="12.928993662059">
        <ele>133</ele>
        <time>2019-11-08T21:29:24Z</time>
      </trkpt>
      <trkpt lat="57.734122857144" lon="12.929095753601">
        <ele>133.4</ele>
        <time>2019-11-08T21:29:26Z</time>
      </trkpt>
      <trkpt lat="57.734118498556" lon="12.929205472672">
        <ele>134.4</ele>
        <time>2019-11-08T21:29:29Z</time>
      </trkpt>
      <trkpt lat="57.73411313414" lon="12.929246879258">
        <ele>135</ele>
        <time>2019-11-08T21:29:30Z</time>
      </trkpt>
      <trkpt lat="57.73411481052" lon="12.929297422115">
        <ele>135.8</ele>
        <time>2019-11-08T21:29:32Z</time>
      </trkpt>
      <trkpt lat="57.734109529923" lon="12.929321729625">
        <ele>136.8</ele>
        <time>2019-11-08T21:29:35Z</time>
      </trkpt>
      <trkpt lat="57.734099555462" lon="12.92934226528">
        <ele>137.6</ele>
        <time>2019-11-08T21:29:37Z</time>
      </trkpt>
      <trkpt lat="57.734086479698" lon="12.929347378239">
        <ele>138</ele>
        <time>2019-11-08T21:29:38Z</time>
      </trkpt>
      <trkpt lat="57.734081953472" lon="12.929356346872">
        <ele>138.6</ele>
        <time>2019-11-08T21:29:39Z</time>
      </trkpt>
      <trkpt lat="57.734079019807" lon="12.929378642726">
        <ele>139</ele>
        <time>2019-11-08T21:29:40Z</time>
      </trkpt>
      <trkpt lat="57.734078516893" lon="12.929399178381">
        <ele>140.6</ele>
        <time>2019-11-08T21:29:43Z</time>
      </trkpt>
      <trkpt lat="57.734076589056" lon="12.929389623015">
        <ele>141.6</ele>
        <time>2019-11-08T21:29:46Z</time>
      </trkpt>
      <trkpt lat="57.733971731487" lon="12.929348216429">
        <ele>140.6</ele>
        <time>2019-11-08T21:29:53Z</time>
      </trkpt>
      <trkpt lat="57.733943568303" lon="12.929300439599">
        <ele>139.6</ele>
        <time>2019-11-08T21:29:54Z</time>
      </trkpt>
      <trkpt lat="57.73391029216" lon="12.929254003873">
        <ele>138.6</ele>
        <time>2019-11-08T21:29:55Z</time>
      </trkpt>
      <trkpt lat="57.733846841177" lon="12.929171442158">
        <ele>137.4</ele>
        <time>2019-11-08T21:29:57Z</time>
      </trkpt>
      <trkpt lat="57.733761010521" lon="12.9289047301">
        <ele>137.2</ele>
        <time>2019-11-08T21:30:03Z</time>
      </trkpt>
      <trkpt lat="57.7335632815" lon="12.928850583026">
        <ele>137</ele>
        <time>2019-11-08T21:30:09Z</time>
      </trkpt>
      <trkpt lat="57.733494717558" lon="12.928823928584">
        <ele>136.2</ele>
        <time>2019-11-08T21:30:11Z</time>
      </trkpt>
      <trkpt lat="57.733360607158" lon="12.928718232825">
        <ele>135.2</ele>
        <time>2019-11-08T21:30:15Z</time>
      </trkpt>
      <trkpt lat="57.733277291072" lon="12.928745809276">
        <ele>134</ele>
        <time>2019-11-08T21:30:18Z</time>
      </trkpt>
      <trkpt lat="57.73308132225" lon="12.928748156208">
        <ele>133.4</ele>
        <time>2019-11-08T21:30:23Z</time>
      </trkpt>
      <trkpt lat="57.733024492968" lon="12.928829879733">
        <ele>133.8</ele>
        <time>2019-11-08T21:30:27Z</time>
      </trkpt>
      <trkpt lat="57.733006555702" lon="12.92887790802">
        <ele>132.8</ele>
        <time>2019-11-08T21:30:31Z</time>
      </trkpt>
      <trkpt lat="57.7330100761" lon="12.928935491673">
        <ele>132.8</ele>
        <time>2019-11-08T21:30:34Z</time>
      </trkpt>
      <trkpt lat="57.733015608154" lon="12.929137327825">
        <ele>132.8</ele>
        <time>2019-11-08T21:30:39Z</time>
      </trkpt>
      <trkpt lat="57.732984762762" lon="12.929099525456">
        <ele>133</ele>
        <time>2019-11-08T21:30:45Z</time>
      </trkpt>
      <trkpt lat="57.733040083302" lon="12.929453576912">
        <ele>133</ele>
        <time>2019-11-08T21:30:53Z</time>
      </trkpt>
      <trkpt lat="57.733119292257" lon="12.929758426615">
        <ele>133.4</ele>
        <time>2019-11-08T21:30:57Z</time>
      </trkpt>
      <trkpt lat="57.733183916706" lon="12.929960178948">
        <ele>133.2</ele>
        <time>2019-11-08T21:31:00Z</time>
      </trkpt>
      <trkpt lat="57.733194561719" lon="12.930098899393">
        <ele>133.2</ele>
        <time>2019-11-08T21:31:02Z</time>
      </trkpt>
      <trkpt lat="57.733050895953" lon="12.930341303941">
        <ele>132.8</ele>
        <time>2019-11-08T21:31:07Z</time>
      </trkpt>
      <trkpt lat="57.732913768069" lon="12.930468541183">
        <ele>131.8</ele>
        <time>2019-11-08T21:31:11Z</time>
      </trkpt>
      <trkpt lat="57.732758451462" lon="12.930638777572">
        <ele>132</ele>
        <time>2019-11-08T21:31:16Z</time>
      </trkpt>
      <trkpt lat="57.73273012064" lon="12.930635424812">
        <ele>132.2</ele>
        <time>2019-11-08T21:31:17Z</time>
      </trkpt>
      <trkpt lat="57.732582347743" lon="12.930329569281">
        <ele>131.6</ele>
        <time>2019-11-08T21:31:23Z</time>
      </trkpt>
      <trkpt lat="57.73256415902" lon="12.930131924079">
        <ele>130.4</ele>
        <time>2019-11-08T21:31:26Z</time>
      </trkpt>
      <trkpt lat="57.732616378257" lon="12.929936290533">
        <ele>131</ele>
        <time>2019-11-08T21:31:32Z</time>
      </trkpt>
      <trkpt lat="57.732420409435" lon="12.929898907259">
        <ele>130.8</ele>
        <time>2019-11-08T21:31:38Z</time>
      </trkpt>
      <trkpt lat="57.732266769208" lon="12.929702184066">
        <ele>130.8</ele>
        <time>2019-11-08T21:31:43Z</time>
      </trkpt>
      <trkpt lat="57.732099969398" lon="12.929527840546">
        <ele>130.4</ele>
        <time>2019-11-08T21:31:48Z</time>
      </trkpt>
      <trkpt lat="57.732100220855" lon="12.929456678215">
        <ele>130.4</ele>
        <time>2019-11-08T21:31:49Z</time>
      </trkpt>
      <trkpt lat="57.732204743148" lon="12.929148224295">
        <ele>130.8</ele>
        <time>2019-11-08T21:31:54Z</time>
      </trkpt>
      <trkpt lat="57.732225278803" lon="12.929082091104">
        <ele>131</ele>
        <time>2019-11-08T21:31:55Z</time>
      </trkpt>
      <trkpt lat="57.73225905786" lon="12.928961224106">
        <ele>131.6</ele>
        <time>2019-11-08T21:31:57Z</time>
      </trkpt>
      <trkpt lat="57.732314713676" lon="12.928769865329">
        <ele>131.8</ele>
        <time>2019-11-08T21:32:01Z</time>
      </trkpt>
      <trkpt lat="57.732378416116" lon="12.928662660828">
        <ele>131.8</ele>
        <time>2019-11-08T21:32:04Z</time>
      </trkpt>
      <trkpt lat="57.73237975722" lon="12.928606166822">
        <ele>132.4</ele>
        <time>2019-11-08T21:32:07Z</time>
      </trkpt>
      <trkpt lat="57.732384367265" lon="12.92858873247">
        <ele>132.8</ele>
        <time>2019-11-08T21:32:08Z</time>
      </trkpt>
      <trkpt lat="57.732449159352" lon="12.928553193214">
        <ele>133.4</ele>
        <time>2019-11-08T21:32:13Z</time>
      </trkpt>
      <trkpt lat="57.732626687994" lon="12.92864656758">
        <ele>132.6</ele>
        <time>2019-11-08T21:32:19Z</time>
      </trkpt>
      <trkpt lat="57.732791057053" lon="12.928804901671">
        <ele>132.6</ele>
        <time>2019-11-08T21:32:25Z</time>
      </trkpt>
      <trkpt lat="57.732828943241" lon="12.928841111479">
        <ele>132.6</ele>
        <time>2019-11-08T21:32:27Z</time>
      </trkpt>
      <trkpt lat="57.732938327036" lon="12.928583032778">
        <ele>132.6</ele>
        <time>2019-11-08T21:32:34Z</time>
      </trkpt>
      <trkpt lat="57.73314083374" lon="12.928487395299">
        <ele>132</ele>
        <time>2019-11-08T21:32:40Z</time>
      </trkpt>
      <trkpt lat="57.733285505334" lon="12.928537099966">
        <ele>131.8</ele>
        <time>2019-11-08T21:32:44Z</time>
      </trkpt>
      <trkpt lat="57.73345766956" lon="12.928676490963">
        <ele>131.4</ele>
        <time>2019-11-08T21:32:50Z</time>
      </trkpt>
      <trkpt lat="57.733681131014" lon="12.928716724083">
        <ele>131.2</ele>
        <time>2019-11-08T21:32:56Z</time>
      </trkpt>
      <trkpt lat="57.733868801755" lon="12.928739439032">
        <ele>131</ele>
        <time>2019-11-08T21:33:01Z</time>
      </trkpt>
      <trkpt lat="57.733970306564" lon="12.928766512569">
        <ele>131</ele>
        <time>2019-11-08T21:33:06Z</time>
      </trkpt>
      <trkpt lat="57.733898054586" lon="12.928692835668">
        <ele>131</ele>
        <time>2019-11-08T21:33:11Z</time>
      </trkpt>
      <trkpt lat="57.733842314951" lon="12.928658553697">
        <ele>130.8</ele>
        <time>2019-11-08T21:33:13Z</time>
      </trkpt>
      <trkpt lat="57.733653554563" lon="12.928605160994">
        <ele>130.4</ele>
        <time>2019-11-08T21:33:19Z</time>
      </trkpt>
      <trkpt lat="57.733459932673" lon="12.928568699729">
        <ele>130.8</ele>
        <time>2019-11-08T21:33:24Z</time>
      </trkpt>
      <trkpt lat="57.733259605263" lon="12.928503823823">
        <ele>131.6</ele>
        <time>2019-11-08T21:33:29Z</time>
      </trkpt>
      <trkpt lat="57.733177211186" lon="12.928475828277">
        <ele>132.2</ele>
        <time>2019-11-08T21:33:31Z</time>
      </trkpt>
      <trkpt lat="57.732999934001" lon="12.928356386202">
        <ele>131.6</ele>
        <time>2019-11-08T21:33:36Z</time>
      </trkpt>
      <trkpt lat="57.73296481384" lon="12.92826100018">
        <ele>131</ele>
        <time>2019-11-08T21:33:38Z</time>
      </trkpt>
      <trkpt lat="57.733062714432" lon="12.92794416436">
        <ele>130.4</ele>
        <time>2019-11-08T21:33:44Z</time>
      </trkpt>
      <trkpt lat="57.733098505145" lon="12.927867302337">
        <ele>130.4</ele>
        <time>2019-11-08T21:33:46Z</time>
      </trkpt>
      <trkpt lat="57.733141169016" lon="12.927880713377">
        <ele>130.2</ele>
        <time>2019-11-08T21:33:48Z</time>
      </trkpt>
      <trkpt lat="57.733137816256" lon="12.927969980612">
        <ele>130.2</ele>
        <time>2019-11-08T21:33:52Z</time>
      </trkpt>
      <trkpt lat="57.733143515948" lon="12.92797350101">
        <ele>130.2</ele>
        <time>2019-11-08T21:33:54Z</time>
      </trkpt>
      <trkpt lat="57.733105378303" lon="12.927883060309">
        <ele>130.2</ele>
        <time>2019-11-08T21:33:59Z</time>
      </trkpt>
      <trkpt lat="57.733078723861" lon="12.927947098025">
        <ele>129.8</ele>
        <time>2019-11-08T21:34:03Z</time>
      </trkpt>
      <trkpt lat="57.733036814361" lon="12.928024882057">
        <ele>129.8</ele>
        <time>2019-11-08T21:34:05Z</time>
      </trkpt>
      <trkpt lat="57.732891975129" lon="12.928374826382">
        <ele>130.2</ele>
        <time>2019-11-08T21:34:10Z</time>
      </trkpt>
      <trkpt lat="57.732802959351" lon="12.928654027471">
        <ele>130.8</ele>
        <time>2019-11-08T21:34:13Z</time>
      </trkpt>
      <trkpt lat="57.732790135044" lon="12.928722256137">
        <ele>131.4</ele>
        <time>2019-11-08T21:34:14Z</time>
      </trkpt>
      <trkpt lat="57.732768509742" lon="12.92874715038">
        <ele>131.8</ele>
        <time>2019-11-08T21:34:15Z</time>
      </trkpt>
      <trkpt lat="57.73269826942" lon="12.928722423775">
        <ele>132.4</ele>
        <time>2019-11-08T21:34:17Z</time>
      </trkpt>
      <trkpt lat="57.732650576409" lon="12.92861471636">
        <ele>132.6</ele>
        <time>2019-11-08T21:34:19Z</time>
      </trkpt>
      <trkpt lat="57.732673458996" lon="12.928394942942">
        <ele>133</ele>
        <time>2019-11-08T21:34:22Z</time>
      </trkpt>
      <trkpt lat="57.732786530827" lon="12.928070479593">
        <ele>133.2</ele>
        <time>2019-11-08T21:34:28Z</time>
      </trkpt>
      <trkpt lat="57.732886359256" lon="12.927741657656">
        <ele>132</ele>
        <time>2019-11-08T21:34:34Z</time>
      </trkpt>
      <trkpt lat="57.73290446416" lon="12.927654485896">
        <ele>132</ele>
        <time>2019-11-08T21:34:36Z</time>
      </trkpt>
      <trkpt lat="57.732899770296" lon="12.927636297173">
        <ele>132</ele>
        <time>2019-11-08T21:34:37Z</time>
      </trkpt>
      <trkpt lat="57.732898261554" lon="12.927584245574">
        <ele>132</ele>
        <time>2019-11-08T21:34:39Z</time>
      </trkpt>
      <trkpt lat="57.733000939829" lon="12.92739095896">
        <ele>131.6</ele>
        <time>2019-11-08T21:34:45Z</time>
      </trkpt>
      <trkpt lat="57.733000269277" lon="12.927301440268">
        <ele>131.6</ele>
        <time>2019-11-08T21:34:47Z</time>
      </trkpt>
      <trkpt lat="57.732830368164" lon="12.927060544462">
        <ele>131.8</ele>
        <time>2019-11-08T21:34:52Z</time>
      </trkpt>
      <trkpt lat="57.732684606923" lon="12.926801292295">
        <ele>132</ele>
        <time>2019-11-08T21:34:57Z</time>
      </trkpt>
      <trkpt lat="57.732537588397" lon="12.926573807529">
        <ele>132.6</ele>
        <time>2019-11-08T21:35:05Z</time>
      </trkpt>
      <trkpt lat="57.732411021707" lon="12.926446151192">
        <ele>131.8</ele>
        <time>2019-11-08T21:35:12Z</time>
      </trkpt>
      <trkpt lat="57.73236969894" lon="12.926547907458">
        <ele>131.6</ele>
        <time>2019-11-08T21:35:15Z</time>
      </trkpt>
      <trkpt lat="57.732326029241" lon="12.926602054532">
        <ele>131.8</ele>
        <time>2019-11-08T21:35:17Z</time>
      </trkpt>
      <trkpt lat="57.732261488611" lon="12.92665418995">
        <ele>131.8</ele>
        <time>2019-11-08T21:35:19Z</time>
      </trkpt>
      <trkpt lat="57.732164761485" lon="12.926691154129">
        <ele>132</ele>
        <time>2019-11-08T21:35:22Z</time>
      </trkpt>
      <trkpt lat="57.731956806546" lon="12.926778074432">
        <ele>131.4</ele>
        <time>2019-11-08T21:35:26Z</time>
      </trkpt>
      <trkpt lat="57.731759161344" lon="12.926793078033">
        <ele>130.6</ele>
        <time>2019-11-08T21:35:31Z</time>
      </trkpt>
      <trkpt lat="57.731679617113" lon="12.926794083861">
        <ele>130.4</ele>
        <time>2019-11-08T21:35:34Z</time>
      </trkpt>
      <trkpt lat="57.731634271034" lon="12.926831383316">
        <ele>130.2</ele>
        <time>2019-11-08T21:35:37Z</time>
      </trkpt>
      <trkpt lat="57.731608203325" lon="12.926887793503">
        <ele>130</ele>
        <time>2019-11-08T21:35:40Z</time>
      </trkpt>
      <trkpt lat="57.731551793138" lon="12.926948478459">
        <ele>130</ele>
        <time>2019-11-08T21:35:44Z</time>
      </trkpt>
      <trkpt lat="57.731726220477" lon="12.926781846287">
        <ele>130.6</ele>
        <time>2019-11-08T21:35:52Z</time>
      </trkpt>
      <trkpt lat="57.731739212422" lon="12.92676483103">
        <ele>131.6</ele>
        <time>2019-11-08T21:35:53Z</time>
      </trkpt>
      <trkpt lat="57.731750360349" lon="12.926746642307">
        <ele>132</ele>
        <time>2019-11-08T21:35:55Z</time>
      </trkpt>
      <trkpt lat="57.731745415028" lon="12.926848901487">
        <ele>132.2</ele>
        <time>2019-11-08T21:35:59Z</time>
      </trkpt>
      <trkpt lat="57.731764944855" lon="12.926894331385">
        <ele>132</ele>
        <time>2019-11-08T21:36:01Z</time>
      </trkpt>
      <trkpt lat="57.731853122443" lon="12.927178142519">
        <ele>132.8</ele>
        <time>2019-11-08T21:36:09Z</time>
      </trkpt>
      <trkpt lat="57.731942305859" lon="12.927473772132">
        <ele>133.2</ele>
        <time>2019-11-08T21:36:14Z</time>
      </trkpt>
      <trkpt lat="57.732023191194" lon="12.927620287744">
        <ele>133.4</ele>
        <time>2019-11-08T21:36:17Z</time>
      </trkpt>
      <trkpt lat="57.732117319931" lon="12.927896555168">
        <ele>134</ele>
        <time>2019-11-08T21:36:23Z</time>
      </trkpt>
      <trkpt lat="57.732134921921" lon="12.927928154931">
        <ele>135.4</ele>
        <time>2019-11-08T21:36:25Z</time>
      </trkpt>
      <trkpt lat="57.732167443693" lon="12.927976183218">
        <ele>136.2</ele>
        <time>2019-11-08T21:36:29Z</time>
      </trkpt>
      <trkpt lat="57.732131150066" lon="12.928001077461">
        <ele>136</ele>
        <time>2019-11-08T21:36:32Z</time>
      </trkpt>
      <trkpt lat="57.732065603608" lon="12.928320176394">
        <ele>134.4</ele>
        <time>2019-11-08T21:36:37Z</time>
      </trkpt>
      <trkpt lat="57.73196736774" lon="12.92849988433">
        <ele>133.2</ele>
        <time>2019-11-08T21:36:40Z</time>
      </trkpt>
      <trkpt lat="57.731926966982" lon="12.928560904562">
        <ele>133</ele>
        <time>2019-11-08T21:36:41Z</time>
      </trkpt>
      <trkpt lat="57.731844321448" lon="12.928616308921">
        <ele>132.8</ele>
        <time>2019-11-08T21:36:43Z</time>
      </trkpt>
      <trkpt lat="57.731757652602" lon="12.928567526263">
        <ele>132.8</ele>
        <time>2019-11-08T21:36:45Z</time>
      </trkpt>
      <trkpt lat="57.73168657409" lon="12.928490245145">
        <ele>132</ele>
        <time>2019-11-08T21:36:47Z</time>
      </trkpt>
      <trkpt lat="57.731651453929" lon="12.928456717545">
        <ele>131.6</ele>
        <time>2019-11-08T21:36:48Z</time>
      </trkpt>
      <trkpt lat="57.73159437319" lon="12.928435930433">
        <ele>131.2</ele>
        <time>2019-11-08T21:36:50Z</time>
      </trkpt>
      <trkpt lat="57.731537292451" lon="12.928510194067">
        <ele>131.2</ele>
        <time>2019-11-08T21:36:53Z</time>
      </trkpt>
      <trkpt lat="57.731453641089" lon="12.92884773318">
        <ele>131.4</ele>
        <time>2019-11-08T21:37:00Z</time>
      </trkpt>
      <trkpt lat="57.731486749594" lon="12.929191977813">
        <ele>132</ele>
        <time>2019-11-08T21:37:05Z</time>
      </trkpt>
      <trkpt lat="57.731505944145" lon="12.929253249502">
        <ele>132</ele>
        <time>2019-11-08T21:37:07Z</time>
      </trkpt>
      <trkpt lat="57.731439643316" lon="12.929604451112">
        <ele>131.8</ele>
        <time>2019-11-08T21:37:16Z</time>
      </trkpt>
      <trkpt lat="57.731496975512" lon="12.929905361322">
        <ele>131.8</ele>
        <time>2019-11-08T21:37:21Z</time>
      </trkpt>
      <trkpt lat="57.731531425121" lon="12.930184897687">
        <ele>132</ele>
        <time>2019-11-08T21:37:27Z</time>
      </trkpt>
      <trkpt lat="57.731514409864" lon="12.930224544074">
        <ele>132</ele>
        <time>2019-11-08T21:37:29Z</time>
      </trkpt>
      <trkpt lat="57.731509464543" lon="12.930355720809">
        <ele>131.6</ele>
        <time>2019-11-08T21:37:34Z</time>
      </trkpt>
      <trkpt lat="57.731603509461" lon="12.930702563831">
        <ele>131.4</ele>
        <time>2019-11-08T21:37:42Z</time>
      </trkpt>
      <trkpt lat="57.731730914341" lon="12.930954020831">
        <ele>132</ele>
        <time>2019-11-08T21:37:47Z</time>
      </trkpt>
      <trkpt lat="57.731891511545" lon="12.931216290482">
        <ele>132.2</ele>
        <time>2019-11-08T21:37:53Z</time>
      </trkpt>
      <trkpt lat="57.732017994416" lon="12.931469088586">
        <ele>131.4</ele>
        <time>2019-11-08T21:37:59Z</time>
      </trkpt>
      <trkpt lat="57.732024029384" lon="12.931551985577">
        <ele>132</ele>
        <time>2019-11-08T21:38:03Z</time>
      </trkpt>
      <trkpt lat="57.732020508986" lon="12.931609988325">
        <ele>132.2</ele>
        <time>2019-11-08T21:38:06Z</time>
      </trkpt>
      <trkpt lat="57.73220625189" lon="12.931792127012">
        <ele>132</ele>
        <time>2019-11-08T21:38:12Z</time>
      </trkpt>
      <trkpt lat="57.732385959826" lon="12.931985581264">
        <ele>132</ele>
        <time>2019-11-08T21:38:20Z</time>
      </trkpt>
      <trkpt lat="57.732548065772" lon="12.932177191498">
        <ele>132.2</ele>
        <time>2019-11-08T21:38:24Z</time>
      </trkpt>
      <trkpt lat="57.732725678233" lon="12.932400485314">
        <ele>132.2</ele>
        <time>2019-11-08T21:38:29Z</time>
      </trkpt>
      <trkpt lat="57.732894573518" lon="12.932616905972">
        <ele>132.2</ele>
        <time>2019-11-08T21:38:34Z</time>
      </trkpt>
      <trkpt lat="57.732911672594" lon="12.932667951743">
        <ele>132.2</ele>
        <time>2019-11-08T21:38:35Z</time>
      </trkpt>
      <trkpt lat="57.732829194698" lon="12.932962240252">
        <ele>133</ele>
        <time>2019-11-08T21:38:41Z</time>
      </trkpt>
      <trkpt lat="57.732815029287" lon="12.933012531652">
        <ele>133.2</ele>
        <time>2019-11-08T21:38:42Z</time>
      </trkpt>
      <trkpt lat="57.732684104009" lon="12.933269604525">
        <ele>133.2</ele>
        <time>2019-11-08T21:38:51Z</time>
      </trkpt>
      <trkpt lat="57.732682008534" lon="12.933448474271">
        <ele>133.4</ele>
        <time>2019-11-08T21:38:53Z</time>
      </trkpt>
      <trkpt lat="57.732490482119" lon="12.933508991589">
        <ele>133.6</ele>
        <time>2019-11-08T21:38:58Z</time>
      </trkpt>
      <trkpt lat="57.732408926232" lon="12.933505806467">
        <ele>133.6</ele>
        <time>2019-11-08T21:39:00Z</time>
      </trkpt>
      <trkpt lat="57.732237013463" lon="12.933369600592">
        <ele>133.2</ele>
        <time>2019-11-08T21:39:05Z</time>
      </trkpt>
      <trkpt lat="57.732186722063" lon="12.933250996707">
        <ele>132.2</ele>
        <time>2019-11-08T21:39:08Z</time>
      </trkpt>
      <trkpt lat="57.732086139263" lon="12.933143624568">
        <ele>131.8</ele>
        <time>2019-11-08T21:39:12Z</time>
      </trkpt>
      <trkpt lat="57.732001314435" lon="12.933053435324">
        <ele>132.2</ele>
        <time>2019-11-08T21:39:18Z</time>
      </trkpt>
      <trkpt lat="57.732079852838" lon="12.93320799756">
        <ele>132.4</ele>
        <time>2019-11-08T21:39:23Z</time>
      </trkpt>
      <trkpt lat="57.732126037107" lon="12.933430034091">
        <ele>132</ele>
        <time>2019-11-08T21:39:28Z</time>
      </trkpt>
      <trkpt lat="57.73217859162" lon="12.933522821724">
        <ele>132</ele>
        <time>2019-11-08T21:39:36Z</time>
      </trkpt>
      <trkpt lat="57.732219746749" lon="12.933909311133">
        <ele>132</ele>
        <time>2019-11-08T21:39:41Z</time>
      </trkpt>
      <trkpt lat="57.732222680414" lon="12.9340595986">
        <ele>132</ele>
        <time>2019-11-08T21:39:43Z</time>
      </trkpt>
      <trkpt lat="57.732264757552" lon="12.934406860717">
        <ele>132</ele>
        <time>2019-11-08T21:39:48Z</time>
      </trkpt>
      <trkpt lat="57.732135173378" lon="12.934695952448">
        <ele>132.2</ele>
        <time>2019-11-08T21:39:52Z</time>
      </trkpt>
      <trkpt lat="57.732024699936" lon="12.934966771637">
        <ele>132.4</ele>
        <time>2019-11-08T21:39:56Z</time>
      </trkpt>
      <trkpt lat="57.732000643883" lon="12.93503608995">
        <ele>132.4</ele>
        <time>2019-11-08T21:39:57Z</time>
      </trkpt>
      <trkpt lat="57.731910789915" lon="12.935385196085">
        <ele>132.2</ele>
        <time>2019-11-08T21:40:02Z</time>
      </trkpt>
      <trkpt lat="57.731810458572" lon="12.93566473245">
        <ele>133</ele>
        <time>2019-11-08T21:40:07Z</time>
      </trkpt>
      <trkpt lat="57.731783720311" lon="12.935664313355">
        <ele>133.4</ele>
        <time>2019-11-08T21:40:08Z</time>
      </trkpt>
      <trkpt lat="57.731623877478" lon="12.935465327049">
        <ele>133.4</ele>
        <time>2019-11-08T21:40:12Z</time>
      </trkpt>
      <trkpt lat="57.731560091219" lon="12.93536382224">
        <ele>132.4</ele>
        <time>2019-11-08T21:40:15Z</time>
      </trkpt>
      <trkpt lat="57.731574591906" lon="12.935370276303">
        <ele>132.2</ele>
        <time>2019-11-08T21:40:16Z</time>
      </trkpt>
      <trkpt lat="57.731672241041" lon="12.935520479951">
        <ele>131.4</ele>
        <time>2019-11-08T21:40:21Z</time>
      </trkpt>
      <trkpt lat="57.731746001761" lon="12.935632713592">
        <ele>131.8</ele>
        <time>2019-11-08T21:40:24Z</time>
      </trkpt>
      <trkpt lat="57.731690848859" lon="12.935910741215">
        <ele>133.2</ele>
        <time>2019-11-08T21:40:29Z</time>
      </trkpt>
      <trkpt lat="57.731685484443" lon="12.936127832425">
        <ele>133</ele>
        <time>2019-11-08T21:40:34Z</time>
      </trkpt>
      <trkpt lat="57.731718676767" lon="12.936157839627">
        <ele>132.2</ele>
        <time>2019-11-08T21:40:37Z</time>
      </trkpt>
      <trkpt lat="57.731902659472" lon="12.936281053557">
        <ele>131.2</ele>
        <time>2019-11-08T21:40:44Z</time>
      </trkpt>
      <trkpt lat="57.732081613037" lon="12.936364872557">
        <ele>131.8</ele>
        <time>2019-11-08T21:40:48Z</time>
      </trkpt>
      <trkpt lat="57.732165432037" lon="12.936297230624">
        <ele>133.6</ele>
        <time>2019-11-08T21:40:51Z</time>
      </trkpt>
      <trkpt lat="57.732331393657" lon="12.936089443323">
        <ele>134.2</ele>
        <time>2019-11-08T21:40:57Z</time>
      </trkpt>
      <trkpt lat="57.732490565938" lon="12.935912417595">
        <ele>134</ele>
        <time>2019-11-08T21:41:02Z</time>
      </trkpt>
      <trkpt lat="57.732657617205" lon="12.935868077344">
        <ele>133.8</ele>
        <time>2019-11-08T21:41:07Z</time>
      </trkpt>
      <trkpt lat="57.73284411448" lon="12.935870424276">
        <ele>133</ele>
        <time>2019-11-08T21:41:14Z</time>
      </trkpt>
      <trkpt lat="57.732871607112" lon="12.935794400443">
        <ele>133</ele>
        <time>2019-11-08T21:41:16Z</time>
      </trkpt>
      <trkpt lat="57.732906894911" lon="12.935836980495">
        <ele>133</ele>
        <time>2019-11-08T21:41:22Z</time>
      </trkpt>
      <trkpt lat="57.732949223506" lon="12.935820551971">
        <ele>132.8</ele>
        <time>2019-11-08T21:41:24Z</time>
      </trkpt>
      <trkpt lat="57.733018877095" lon="12.935736397695">
        <ele>132.8</ele>
        <time>2019-11-08T21:41:26Z</time>
      </trkpt>
      <trkpt lat="57.733151311115" lon="12.9354929035">
        <ele>132.8</ele>
        <time>2019-11-08T21:41:30Z</time>
      </trkpt>
      <trkpt lat="57.733298245822" lon="12.935220407931">
        <ele>132.6</ele>
        <time>2019-11-08T21:41:35Z</time>
      </trkpt>
      <trkpt lat="57.733319619667" lon="12.935178917526">
        <ele>132.6</ele>
        <time>2019-11-08T21:41:36Z</time>
      </trkpt>
      <trkpt lat="57.733476361197" lon="12.935332976848">
        <ele>132.8</ele>
        <time>2019-11-08T21:41:41Z</time>
      </trkpt>
      <trkpt lat="57.733618350583" lon="12.935622068579">
        <ele>132.6</ele>
        <time>2019-11-08T21:41:46Z</time>
      </trkpt>
      <trkpt lat="57.733657410237" lon="12.935669174857">
        <ele>132.6</ele>
        <time>2019-11-08T21:41:47Z</time>
      </trkpt>
      <trkpt lat="57.733793029379" lon="12.935870340457">
        <ele>132</ele>
        <time>2019-11-08T21:41:51Z</time>
      </trkpt>
      <trkpt lat="57.733868047384" lon="12.935954662371">
        <ele>132.4</ele>
        <time>2019-11-08T21:41:53Z</time>
      </trkpt>
      <trkpt lat="57.734010623503" lon="12.936232354718">
        <ele>132.8</ele>
        <time>2019-11-08T21:41:58Z</time>
      </trkpt>
      <trkpt lat="57.734106596258" lon="12.936346600015">
        <ele>132.6</ele>
        <time>2019-11-08T21:42:01Z</time>
      </trkpt>
      <trkpt lat="57.734310527885" lon="12.936341654694">
        <ele>133.4</ele>
        <time>2019-11-08T21:42:07Z</time>
      </trkpt>
      <trkpt lat="57.734377583085" lon="12.936340229771">
        <ele>133.6</ele>
        <time>2019-11-08T21:42:09Z</time>
      </trkpt>
      <trkpt lat="57.734465593035" lon="12.936342911979">
        <ele>132.8</ele>
        <time>2019-11-08T21:42:15Z</time>
      </trkpt>
      <trkpt lat="57.73449031964" lon="12.936351377698">
        <ele>132.6</ele>
        <time>2019-11-08T21:42:16Z</time>
      </trkpt>
      <trkpt lat="57.734669357024" lon="12.936352718802">
        <ele>132.6</ele>
        <time>2019-11-08T21:42:23Z</time>
      </trkpt>
      <trkpt lat="57.73469316162" lon="12.936327824559">
        <ele>132.4</ele>
        <time>2019-11-08T21:42:24Z</time>
      </trkpt>
      <trkpt lat="57.734879826533" lon="12.936079552681">
        <ele>132.2</ele>
        <time>2019-11-08T21:42:30Z</time>
      </trkpt>
      <trkpt lat="57.735000861169" lon="12.936043426692">
        <ele>132.2</ele>
        <time>2019-11-08T21:42:33Z</time>
      </trkpt>
      <trkpt lat="57.735180652924" lon="12.935951225792">
        <ele>132.2</ele>
        <time>2019-11-08T21:42:37Z</time>
      </trkpt>
      <trkpt lat="57.735210073393" lon="12.935907975188">
        <ele>132</ele>
        <time>2019-11-08T21:42:38Z</time>
      </trkpt>
      <trkpt lat="57.735236392559" lon="12.935799597221">
        <ele>132.2</ele>
        <time>2019-11-08T21:42:40Z</time>
      </trkpt>
      <trkpt lat="57.735221975691" lon="12.935413023993">
        <ele>132.6</ele>
        <time>2019-11-08T21:42:48Z</time>
      </trkpt>
      <trkpt lat="57.735249468323" lon="12.935045142402">
        <ele>132</ele>
        <time>2019-11-08T21:42:53Z</time>
      </trkpt>
      <trkpt lat="57.735261538259" lon="12.934667034893">
        <ele>132.2</ele>
        <time>2019-11-08T21:42:57Z</time>
      </trkpt>
      <trkpt lat="57.735277799145" lon="12.934279120561">
        <ele>132.6</ele>
        <time>2019-11-08T21:43:01Z</time>
      </trkpt>
      <trkpt lat="57.735298586257" lon="12.933906796563">
        <ele>132.4</ele>
        <time>2019-11-08T21:43:05Z</time>
      </trkpt>
      <trkpt lat="57.735361534326" lon="12.93354411175">
        <ele>132.4</ele>
        <time>2019-11-08T21:43:09Z</time>
      </trkpt>
      <trkpt lat="57.735383411085" lon="12.933368594764">
        <ele>132.4</ele>
        <time>2019-11-08T21:43:12Z</time>
      </trkpt>
      <trkpt lat="57.735344519069" lon="12.933341856503">
        <ele>132.2</ele>
        <time>2019-11-08T21:43:14Z</time>
      </trkpt>
      <trkpt lat="57.735226585736" lon="12.933417209784">
        <ele>132.6</ele>
        <time>2019-11-08T21:43:17Z</time>
      </trkpt>
      <trkpt lat="57.735062719591" lon="12.933677048684">
        <ele>133</ele>
        <time>2019-11-08T21:43:21Z</time>
      </trkpt>
      <trkpt lat="57.735013601657" lon="12.933724993152">
        <ele>133</ele>
        <time>2019-11-08T21:43:22Z</time>
      </trkpt>
      <trkpt lat="57.734912348305" lon="12.933774278724">
        <ele>132.6</ele>
        <time>2019-11-08T21:43:24Z</time>
      </trkpt>
      <trkpt lat="57.734848813503" lon="12.933802106632">
        <ele>132</ele>
        <time>2019-11-08T21:43:26Z</time>
      </trkpt>
      <trkpt lat="57.734671620137" lon="12.933846195426">
        <ele>132</ele>
        <time>2019-11-08T21:43:29Z</time>
      </trkpt>
      <trkpt lat="57.734560811419" lon="12.933881567044">
        <ele>132.2</ele>
        <time>2019-11-08T21:43:31Z</time>
      </trkpt>
      <trkpt lat="57.734423515897" lon="12.934018778747">
        <ele>132.6</ele>
        <time>2019-11-08T21:43:33Z</time>
      </trkpt>
      <trkpt lat="57.734418151481" lon="12.934412141314">
        <ele>133</ele>
        <time>2019-11-08T21:43:37Z</time>
      </trkpt>
      <trkpt lat="57.734431813978" lon="12.934475089383">
        <ele>133.2</ele>
        <time>2019-11-08T21:43:38Z</time>
      </trkpt>
      <trkpt lat="57.73444254281" lon="12.9345122212">
        <ele>133.2</ele>
        <time>2019-11-08T21:43:39Z</time>
      </trkpt>
    </trkseg>
  </trk>
</gpx>